A- A+ FrançaisEnglishEspañol中国

le plus proche LFTH Hyeres-Le-Palyvestre LFBT Tarbes-Lourdes-PyrénéesLFBZ Biarritz-Bayonne-Anglet LFBD Bordeaux-Merignac

manche à air

La météo aéronautique pour les pilotes, la préparation du vol avec les METAR (METeorological Aerodrome Report, message d'observation des conditions météorologiques pour l'aviation) et Les TAF (Terminal Aerodrome Forecast : message de prévision à court terme des conditions météorologiques pour l'aviation). Et les autres ressources comme les VAC (Visual Approch Chart) et les NOTAM (Notice To Airman) pour préprer les vols.

Aéroport Lydd (Royaume-Uni) / OACI EGMD/ IATA LYX

L'altitude de l'aéroport Lydd est de 4 m=13 ft. Il est situé à proximité de Lydd, Ashford (Royaume-Uni). La météo générale à 5 jours est disponible pour Kingsnorth situé à 18.9 km.

METAR de l'aéroport Lydd - EGMD

EGMD 142120Z AUTO 21037G47KT 9999 BKN013/// BKN019/// OVC034/// 12/11 Q1000

Décodage du METAR de l'aéroport Lydd (GB)

METAR émis par EGMD le mardi 14 janvier 2020 à 21:20 heure TU. C'est un METAR généré automatiquement. Attention ce METAR est obsolète car il a été émis il y a 2 heure et 50 minutes.

La visibilité est de supérieure à 10 km=supérieure à 6.2 sm.

La température est de 12°C=54 °F et le point rosée est de 11°C=52 °F . Ce qui correspond à 94% d'humidité relative.

Le QNH est de 1000 hPa=29.53 inHg

Vent de 37 kt=69 km/h avec des rafales à 47 kt =87 km/h, orienté à 210°.

Nuages : Couverture nuageuse fragmentée à 1300 ft=400 mètres. Couverture nuageuse fragmentée à 1900 ft=580 mètres. Couverture nuageuse soudée à 3400 ft=1040 mètres.

TAF de l'aéroport Lydd - EGMD

EGMD 141959Z 1421/1506 21035G45KT 9999 SCT020 TEMPO 1421/1506 4000 RA BKN008 PROB30 1504/1506 21025G35KT

EGMD 141959Z 1421/1506 21035G45KT 9999 nuages épars à 020 temporairement 1421/1506 4000 pluie couverture nuageuse fragmentée à 008 probabilité de 30% d'avoir 1504/1506 21025G35KT

Aéroport à proximité de Lydd

Météo générale à 5 jours à Kingsnorth (18.9 km)EGKE Aéroport Challock (29 km)EGKH Aéroport Lashenden Headcorn (31 km)EGHB Aéroport Maypole (45 km)EGMF Aéroport Farthing Corner (48 km)EGTO Aéroport Rochester (53 km)LFAT Aéroport Le-Touquet-Paris-Plage (68 km)

Vue aérienne de l'aéroport Lydd

NOTAM de l'aéroport Lydd

Les NOTAM sont fournis sans aucune garantie de leur actualité. Le pilote est le seul responsable de la vérification de sa validité avant de l'utiliser opérationnellement pour préparer un vol ou l'utiliser lors de sa navigation.

NOTAM Runway (à partir du mardi 7 janvier 2020 à 09:05 jusqu'au mardi 21 janvier 2020 à 17:00)

C0095/20 NOTAMN
Q) EGTT/QMRHX/IV/NBO/A /000/999/5057N00056E005
A) EGMD B) 2001070905 C) 2001211700
E) AGRICULTURAL BIRD DISPERSAL UNDER RWY 21 APPROACH APRX 400M
BEFORE THR 21
CREATED: 07 Jan 2020 09:14:00
SOURCE: EUECYIYN

Sources des données